Time;durP1;ratioP1;P1;durP2;ratioP2;P2;SDS_P1;SDS_P2;PMS_P1;PMS_P2;Temp;Humidity;BMP_temperature;BMP_pressure;BME280_temperature;BME280_humidity;BME280_pressure;Samples;Min_cycle;Max_cycle;Signal;HPM_P1;HPM_P2
2024/01/22 00:02:03;;;;;;;;;;;;;;;17.98;37.18;102918.16;5056842;28;1149;-61
2024/01/22 00:04:29;;;;;;;;;;;;;;;16.92;38.79;102920.88;5053106;28;1197;-60
2024/01/22 00:06:54;;;;;;;;;;;;;;;17.45;38.12;102916.81;5057924;28;1905;-62
2024/01/22 00:09:20;;;;;;;;;;;;;;;17.61;37.63;102924.47;5057971;28;1120;-61
2024/01/22 00:11:45;;;;;;;;;;;;;;;16.74;39.18;102930.69;5057431;28;1095;-61
2024/01/22 00:14:11;;;;;;;;;;;;;;;16.36;39.97;102923.31;5057039;28;1271;-60
2024/01/22 00:16:39;;;;;;;;;;;;;;;17.36;37.96;102921.78;5057737;28;1048;-61
2024/01/22 00:19:08;;;;;;;;;;;;;;;16.78;39.42;102920.09;5057342;28;1234;-61
2024/01/22 00:21:33;;;;;;;;;;;;;;;18.38;35.92;102934.13;5057531;28;1028;-61
2024/01/22 00:23:59;;;;;;;;;;;;;;;17.45;37.62;102936.88;5057062;28;1075;-61
2024/01/22 00:26:24;;;;;;;;;;;;;;;16.69;39.25;102940.66;5056854;28;1906;-60
2024/01/22 00:28:50;;;;;;;;;;;;;;;17.74;37.20;102937.22;5057015;28;1080;-60
2024/01/22 00:31:15;;;;;;;;;;;;;;;16.73;39.16;102940.00;5057723;28;1099;-60
2024/01/22 00:33:44;;;;;;;;;;;;;;;18.04;36.86;102938.41;5057374;28;1067;-62
2024/01/22 00:36:15;;;;;;;;;;;;;;;17.41;37.71;102943.91;5056766;28;1111;-61
2024/01/22 00:38:41;;;;;;;;;;;;;;;16.70;39.51;102948.66;5056501;28;1116;-61
2024/01/22 00:41:07;;;;;;;;;;;;;;;16.49;39.63;102946.28;5057443;28;1091;-61
2024/01/22 00:43:32;;;;;;;;;;;;;;;17.08;38.55;102941.44;5056770;28;1032;-61
2024/01/22 00:46:00;;;;;;;;;;;;;;;16.55;39.61;102942.63;5056318;28;1954;-61
2024/01/22 00:48:25;;;;;;;;;;;;;;;18.30;36.29;102940.81;5057536;28;1135;-61
2024/01/22 00:50:51;;;;;;;;;;;;;;;17.13;38.46;102938.06;5056563;28;873;-62
2024/01/22 00:53:17;;;;;;;;;;;;;;;17.39;37.98;102943.31;5057300;28;1020;-61
2024/01/22 00:55:42;;;;;;;;;;;;;;;17.81;36.91;102939.06;5056697;28;1473;-61
2024/01/22 00:58:08;;;;;;;;;;;;;;;16.95;38.92;102936.09;5056429;28;1166;-61
2024/01/22 01:00:33;;;;;;;;;;;;;;;17.13;38.36;102938.88;5056705;28;1115;-61
2024/01/22 01:02:59;;;;;;;;;;;;;;;17.13;38.25;102932.56;5056331;28;1139;-61
2024/01/22 01:05:24;;;;;;;;;;;;;;;16.56;39.44;102936.09;5056704;28;1067;-61
2024/01/22 01:07:50;;;;;;;;;;;;;;;16.38;39.91;102936.81;5052000;28;1979;-62
2024/01/22 01:10:15;;;;;;;;;;;;;;;17.92;36.80;102925.41;5056393;28;1123;-61
2024/01/22 01:12:41;;;;;;;;;;;;;;;16.71;39.26;102930.31;5038790;28;1152;-60
2024/01/22 01:15:07;;;;;;;;;;;;;;;17.55;37.47;102924.53;5056157;28;826;-61
2024/01/22 01:17:32;;;;;;;;;;;;;;;17.39;37.93;102925.94;5055846;28;1175;-61
2024/01/22 01:19:58;;;;;;;;;;;;;;;16.54;39.40;102919.84;5056276;28;1055;-60
2024/01/22 01:22:23;;;;;;;;;;;;;;;16.32;39.84;102911.09;5056041;28;1051;-60
2024/01/22 01:24:49;;;;;;;;;;;;;;;17.77;37.25;102909.25;5056661;28;1119;-61
2024/01/22 01:27:16;;;;;;;;;;;;;;;16.72;39.04;102913.59;5055902;28;1989;-60
2024/01/22 01:29:41;;;;;;;;;;;;;;;16.38;39.77;102910.22;5056595;28;1016;-60
2024/01/22 01:32:07;;;;;;;;;;;;;;;17.23;37.88;102905.38;5056683;28;1151;-60
2024/01/22 01:34:32;;;;;;;;;;;;;;;16.44;39.61;102905.75;5055999;28;1168;-60
2024/01/22 01:36:58;;;;;;;;;;;;;;;18.03;36.60;102899.00;5056036;28;1052;-60
2024/01/22 01:39:23;;;;;;;;;;;;;;;17.10;38.34;102884.38;5056210;28;896;-59
2024/01/22 01:41:49;;;;;;;;;;;;;;;17.27;38.05;102885.44;5056072;28;1075;-59
2024/01/22 01:44:14;;;;;;;;;;;;;;;18.03;36.48;102873.41;5056652;28;1087;-61
2024/01/22 01:46:40;;;;;;;;;;;;;;;16.85;38.81;102882.41;5069447;28;1913;-60
2024/01/22 01:49:06;;;;;;;;;;;;;;;16.48;39.42;102875.94;5055581;28;1091;-61
2024/01/22 01:51:31;;;;;;;;;;;;;;;16.19;39.79;102881.81;5055751;28;850;-61
2024/01/22 01:53:56;;;;;;;;;;;;;;;17.33;37.90;102869.94;5056418;28;1143;-58
2024/01/22 01:56:22;;;;;;;;;;;;;;;16.70;39.20;102874.50;5056214;28;1059;-59
2024/01/22 01:58:47;;;;;;;;;;;;;;;17.85;36.71;102868.72;5058952;28;1215;-61
2024/01/22 02:01:14;;;;;;;;;;;;;;;17.94;36.42;102872.88;5060528;28;1207;-61
2024/01/22 02:03:40;;;;;;;;;;;;;;;16.92;38.42;102871.41;5041999;28;1169;-60
2024/01/22 02:06:05;;;;;;;;;;;;;;;16.53;39.48;102873.38;5052898;28;1906;-58
2024/01/22 02:08:31;;;;;;;;;;;;;;;17.21;37.89;102880.88;5055724;28;1301;-63
2024/01/22 02:10:57;;;;;;;;;;;;;;;17.79;36.85;102873.25;5056904;28;1458;-59
2024/01/22 02:13:22;;;;;;;;;;;;;;;18.80;35.01;102876.28;5059705;28;1135;-60
2024/01/22 02:15:48;;;;;;;;;;;;;;;17.47;37.35;102875.31;5059545;28;905;-59
2024/01/22 02:18:13;;;;;;;;;;;;;;;16.88;38.93;102872.91;5059929;28;1114;-60
2024/01/22 02:20:39;;;;;;;;;;;;;;;16.48;39.72;102875.94;5059909;28;1055;-59
2024/01/22 02:23:05;;;;;;;;;;;;;;;17.75;37.10;102874.78;5060110;28;1111;-58
2024/01/22 02:25:30;;;;;;;;;;;;;;;16.94;38.46;102869.25;5059239;28;1052;-59
2024/01/22 02:27:56;;;;;;;;;;;;;;;17.73;37.04;102866.75;5055209;28;1988;-63
2024/01/22 02:30:21;;;;;;;;;;;;;;;18.03;36.48;102868.72;5051143;28;2608;-63
2024/01/22 02:32:47;;;;;;;;;;;;;;;16.99;38.54;102871.34;5051704;28;1846;-61
2024/01/22 02:35:12;;;;;;;;;;;;;;;17.97;36.59;102872.41;5056604;28;1893;-62
2024/01/22 02:37:38;;;;;;;;;;;;;;;17.26;37.96;102871.94;5056962;28;1885;-62
2024/01/22 02:40:04;;;;;;;;;;;;;;;16.77;38.92;102879.94;5047888;28;2054;-61
2024/01/22 02:42:29;;;;;;;;;;;;;;;17.60;37.14;102869.69;5045768;28;2062;-62
2024/01/22 02:44:55;;;;;;;;;;;;;;;16.63;39.24;102879.22;5058227;28;1407;-61
2024/01/22 02:47:20;;;;;;;;;;;;;;;16.43;39.50;102884.84;5041314;28;1981;-61
2024/01/22 02:49:46;;;;;;;;;;;;;;;17.24;37.62;102877.66;5044615;28;1150;-62
2024/01/22 02:52:11;;;;;;;;;;;;;;;16.86;38.96;102881.38;5046376;28;851;-62
2024/01/22 02:54:37;;;;;;;;;;;;;;;18.41;35.67;102878.59;5056975;28;1295;-60
2024/01/22 02:57:02;;;;;;;;;;;;;;;17.36;37.68;102874.16;5057983;28;1281;-60
2024/01/22 02:59:28;;;;;;;;;;;;;;;16.65;39.00;102871.59;5045381;28;1080;-59
2024/01/22 03:01:53;;;;;;;;;;;;;;;16.52;39.19;102882.66;5046254;28;1009;-59
2024/01/22 03:04:19;;;;;;;;;;;;;;;17.69;36.96;102882.03;5056944;28;1150;-60
2024/01/22 03:06:44;;;;;;;;;;;;;;;16.80;38.72;102884.16;5056857;28;1983;-60
2024/01/22 03:09:10;;;;;;;;;;;;;;;18.40;35.71;102882.41;5039969;28;1191;-59
2024/01/22 03:11:35;;;;;;;;;;;;;;;17.65;37.08;102874.50;5058171;28;1195;-57
2024/01/22 03:14:01;;;;;;;;;;;;;;;17.12;38.20;102879.47;5057745;28;2555;-58
2024/01/22 03:16:26;;;;;;;;;;;;;;;18.54;35.14;102865.69;5058626;28;1140;-58
2024/01/22 03:18:53;;;;;;;;;;;;;;;17.34;37.78;102851.56;5058350;28;1106;-59
2024/01/22 03:21:18;;;;;;;;;;;;;;;16.93;38.38;102862.94;5058332;28;1106;-61
2024/01/22 03:23:44;;;;;;;;;;;;;;;17.70;36.98;102855.38;5040571;28;1239;-61
2024/01/22 03:26:17;;;;;;;;;;;;;;;16.93;38.57;102856.63;5057768;28;1984;-61
2024/01/22 03:28:43;;;;;;;;;;;;;;;17.03;38.20;102845.94;5058441;28;1023;-60
2024/01/22 03:31:18;;;;;;;;;;;;;;;17.02;37.92;102843.41;5058066;28;1064;-61
2024/01/22 03:33:44;;;;;;;;;;;;;;;17.35;37.70;102842.22;5058360;28;1167;-58
2024/01/22 03:36:09;;;;;;;;;;;;;;;18.13;35.99;102832.38;5058446;28;1051;-60
2024/01/22 03:38:35;;;;;;;;;;;;;;;17.00;38.15;102829.91;5057808;28;1091;-59
2024/01/22 03:41:00;;;;;;;;;;;;;;;16.53;38.85;102835.75;5057694;28;1036;-59
2024/01/22 03:43:26;;;;;;;;;;;;;;;17.91;36.18;102824.66;5058169;28;1854;-62
2024/01/22 03:45:51;;;;;;;;;;;;;;;16.81;38.21;102825.41;5051212;28;1913;-60
2024/01/22 03:48:17;;;;;;;;;;;;;;;16.69;38.65;102825.28;5053517;28;1024;-58
2024/01/22 03:50:42;;;;;;;;;;;;;;;17.32;37.01;102831.69;5057661;28;1104;-59
2024/01/22 03:53:08;;;;;;;;;;;;;;;16.64;38.57;102836.13;5058089;28;1210;-60
2024/01/22 03:55:33;;;;;;;;;;;;;;;18.13;35.83;102838.75;5057499;28;1020;-59
2024/01/22 03:57:59;;;;;;;;;;;;;;;17.02;37.69;102844.25;5057856;28;1070;-60
2024/01/22 04:00:24;;;;;;;;;;;;;;;17.05;37.90;102843.78;5057568;28;968;-59
2024/01/22 04:02:50;;;;;;;;;;;;;;;17.83;36.13;102851.63;5057560;28;1135;-59
2024/01/22 04:05:15;;;;;;;;;;;;;;;16.81;38.46;102850.13;5057092;28;1124;-59
2024/01/22 04:07:41;;;;;;;;;;;;;;;16.50;39.05;102849.94;5057315;28;1909;-59
2024/01/22 04:10:07;;;;;;;;;;;;;;;18.05;35.78;102855.59;5057608;28;992;-59
2024/01/22 04:12:32;;;;;;;;;;;;;;;16.85;38.28;102860.44;5057029;28;2396;-58
2024/01/22 04:14:58;;;;;;;;;;;;;;;16.74;38.70;102872.16;5055815;28;1153;-58
2024/01/22 04:17:23;;;;;;;;;;;;;;;17.06;37.90;102861.13;5045833;28;1376;-58
2024/01/22 04:19:49;;;;;;;;;;;;;;;16.51;38.92;102868.09;5042222;28;1357;-59
2024/01/22 04:22:14;;;;;;;;;;;;;;;18.25;35.71;102865.47;5044932;28;1385;-59
2024/01/22 04:24:40;;;;;;;;;;;;;;;17.07;37.86;102852.66;5028846;28;1396;-59
2024/01/22 04:27:05;;;;;;;;;;;;;;;16.67;38.55;102860.38;5042869;28;1954;-58
2024/01/22 04:29:32;;;;;;;;;;;;;;;17.41;37.29;102864.16;5047880;28;1274;-58
2024/01/22 04:31:58;;;;;;;;;;;;;;;16.97;38.41;102859.72;5038351;28;1286;-58
2024/01/22 04:34:23;;;;;;;;;;;;;;;18.50;35.36;102856.22;5057078;28;1099;-58
2024/01/22 04:36:49;;;;;;;;;;;;;;;17.39;37.17;102854.44;5057156;28;1230;-59
2024/01/22 04:39:14;;;;;;;;;;;;;;;16.81;38.36;102858.38;5056513;28;1289;-62
2024/01/22 04:41:40;;;;;;;;;;;;;;;17.58;36.88;102866.31;5056540;28;1073;-63
2024/01/22 04:44:06;;;;;;;;;;;;;;;17.04;37.82;102857.75;5038606;28;2224;-60
2024/01/22 04:46:31;;;;;;;;;;;;;;;16.80;38.79;102863.00;5056634;28;1898;-61
2024/01/22 04:48:57;;;;;;;;;;;;;;;17.99;35.99;102870.25;5056753;28;1023;-62
2024/01/22 04:51:22;;;;;;;;;;;;;;;16.89;38.40;102866.38;5056483;28;1251;-61
2024/01/22 04:53:48;;;;;;;;;;;;;;;18.11;35.89;102867.56;5068891;28;944;-64
2024/01/22 04:56:13;;;;;;;;;;;;;;;17.50;36.60;102874.84;5056213;28;1110;-60
2024/01/22 04:58:39;;;;;;;;;;;;;;;16.87;38.05;102862.97;5056033;28;1234;-60
2024/01/22 05:01:04;;;;;;;;;;;;;;;17.40;37.23;102870.75;5042876;28;1088;-60
2024/01/22 05:03:30;;;;;;;;;;;;;;;17.24;37.10;102874.09;5062223;28;981;-60
2024/01/22 05:05:55;;;;;;;;;;;;;;;17.15;37.50;102881.75;5054440;28;1977;-59
2024/01/22 05:08:21;;;;;;;;;;;;;;;18.43;35.14;102870.09;5055100;28;1108;-57
2024/01/22 05:10:48;;;;;;;;;;;;;;;17.12;37.48;102875.88;5056413;28;1028;-57
2024/01/22 05:13:13;;;;;;;;;;;;;;;16.52;38.86;102879.91;5055877;28;2449;-58
2024/01/22 05:15:39;;;;;;;;;;;;;;;17.23;37.40;102880.63;5056027;28;1191;-62
2024/01/22 05:18:05;;;;;;;;;;;;;;;16.81;38.28;102880.34;5038437;28;1080;-62
2024/01/22 05:20:30;;;;;;;;;;;;;;;17.59;36.66;102884.50;5055845;28;1076;-65
2024/01/22 05:22:56;;;;;;;;;;;;;;;16.95;37.77;102881.94;5055832;28;1303;-61
2024/01/22 05:25:21;;;;;;;;;;;;;;;16.53;38.77;102878.88;5051547;28;1391;-58
2024/01/22 05:27:47;;;;;;;;;;;;;;;16.19;39.30;102878.25;5055953;28;1913;-59
2024/01/22 05:30:13;;;;;;;;;;;;;;;16.02;39.58;102884.22;5056093;28;913;-61
2024/01/22 05:32:39;;;;;;;;;;;;;;;15.82;39.96;102880.72;5056420;28;1075;-61
2024/01/22 05:35:04;;;;;;;;;;;;;;;15.64;40.24;102875.91;5055563;28;886;-58
2024/01/22 05:37:31;;;;;;;;;;;;;;;15.46;40.97;102876.56;5056197;28;1090;-60
2024/01/22 05:39:56;;;;;;;;;;;;;;;15.29;40.92;102879.78;5055918;28;1155;-59
2024/01/22 05:42:22;;;;;;;;;;;;;;;16.84;38.17;102869.75;5048344;28;1921;-59
2024/01/22 05:44:47;;;;;;;;;;;;;;;17.28;37.03;102886.31;5046241;28;1140;-58
2024/01/22 05:47:14;;;;;;;;;;;;;;;16.21;38.87;102879.69;5051879;28;1975;-58
2024/01/22 05:49:39;;;;;;;;;;;;;;;15.70;39.99;102880.53;5056109;28;1028;-58
2024/01/22 05:52:05;;;;;;;;;;;;;;;15.48;40.41;102882.69;5055696;28;1112;-58
2024/01/22 05:54:30;;;;;;;;;;;;;;;15.87;39.90;102880.91;5055863;28;1072;-59
2024/01/22 05:56:56;;;;;;;;;;;;;;;17.21;36.86;102869.88;5055684;28;1031;-61
2024/01/22 05:59:21;;;;;;;;;;;;;;;16.77;37.74;102877.19;5055920;28;996;-60
2024/01/22 06:01:47;;;;;;;;;;;;;;;15.97;39.46;102885.94;5055867;28;1215;-59
2024/01/22 06:04:12;;;;;;;;;;;;;;;15.64;40.24;102893.22;5055367;28;1031;-57
2024/01/22 06:06:38;;;;;;;;;;;;;;;15.39;40.40;102895.81;5055485;28;1925;-59
2024/01/22 06:09:04;;;;;;;;;;;;;;;16.31;39.03;102890.19;5038185;28;1091;-57
2024/01/22 06:11:30;;;;;;;;;;;;;;;17.41;36.51;102880.66;5054907;28;1334;-60
2024/01/22 06:13:56;;;;;;;;;;;;;;;16.33;38.66;102901.81;5055140;28;2328;-59
2024/01/22 06:16:21;;;;;;;;;;;;;;;15.72;39.83;102900.34;5055228;28;1175;-59
2024/01/22 06:18:48;;;;;;;;;;;;;;;15.47;40.43;102903.78;5056039;28;1020;-62
2024/01/22 06:21:13;;;;;;;;;;;;;;;15.89;39.53;102898.00;5055608;28;1165;-62
2024/01/22 06:23:40;;;;;;;;;;;;;;;17.24;36.66;102893.31;5055493;28;1100;-62
2024/01/22 06:26:06;;;;;;;;;;;;;;;16.77;37.71;102890.94;5055731;28;1987;-59
2024/01/22 06:28:31;;;;;;;;;;;;;;;16.01;39.04;102892.69;5055054;28;992;-60
2024/01/22 06:30:57;;;;;;;;;;;;;;;15.64;39.69;102887.72;5055203;28;1095;-60
2024/01/22 06:33:23;;;;;;;;;;;;;;;15.38;40.55;102892.19;5055798;28;1000;-62
2024/01/22 06:35:48;;;;;;;;;;;;;;;16.49;38.19;102894.94;5055778;28;1123;-61
2024/01/22 06:38:16;;;;;;;;;;;;;;;17.51;36.15;102884.78;5055214;28;1175;-63
2024/01/22 06:40:41;;;;;;;;;;;;;;;16.63;37.93;102889.38;5055170;28;1259;-65
2024/01/22 06:43:07;;;;;;;;;;;;;;;15.97;39.14;102885.94;5055914;28;1774;-63
2024/01/22 06:45:33;;;;;;;;;;;;;;;15.62;40.03;102889.00;5058657;28;1214;-66
2024/01/22 06:47:58;;;;;;;;;;;;;;;15.47;40.13;102892.81;5055168;28;1973;-62
2024/01/22 06:50:24;;;;;;;;;;;;;;;17.03;37.11;102889.09;5050546;28;1052;-60
2024/01/22 06:52:49;;;;;;;;;;;;;;;17.84;35.50;102889.06;5058634;28;1019;-64
2024/01/22 06:55:15;;;;;;;;;;;;;;;18.37;34.72;102896.66;5051013;28;1289;-62
2024/01/22 06:57:41;;;;;;;;;;;;;;;18.82;33.84;102906.34;5047157;28;1188;-64
2024/01/22 07:00:07;;;;;;;;;;;;;;;17.55;36.00;102910.78;5049511;28;1513;-61
2024/01/22 07:02:33;;;;;;;;;;;;;;;16.81;37.56;102918.81;5060978;28;1218;-63
2024/01/22 07:04:59;;;;;;;;;;;;;;;16.34;38.58;102914.47;5060526;28;1024;-60
2024/01/22 07:07:25;;;;;;;;;;;;;;;15.93;39.38;102918.44;5040995;28;1914;-60
2024/01/22 07:09:51;;;;;;;;;;;;;;;15.82;39.54;102919.13;5058840;28;1127;-62
2024/01/22 07:12:18;;;;;;;;;;;;;;;16.86;37.63;102927.25;5056372;28;2400;-62
2024/01/22 07:14:43;;;;;;;;;;;;;;;17.93;35.58;102935.34;5057681;28;1044;-64
2024/01/22 07:17:09;;;;;;;;;;;;;;;16.80;37.42;102933.63;5058374;28;1252;-64
2024/01/22 07:19:34;;;;;;;;;;;;;;;16.14;38.86;102938.44;5059052;28;1214;-63
2024/01/22 07:22:00;;;;;;;;;;;;;;;15.77;39.42;102924.38;5058494;28;1242;-60
2024/01/22 07:24:25;;;;;;;;;;;;;;;15.64;39.98;102938.97;5053670;28;1219;-59
2024/01/22 07:26:51;;;;;;;;;;;;;;;17.18;36.85;102932.69;5068603;28;1909;-62
2024/01/22 07:29:17;;;;;;;;;;;;;;;17.05;36.69;102931.75;5049823;28;853;-64
2024/01/22 07:31:42;;;;;;;;;;;;;;;16.23;38.63;102926.16;5067115;28;1031;-65
2024/01/22 07:34:08;;;;;;;;;;;;;;;15.82;39.41;102930.97;5058481;28;1206;-58
2024/01/22 07:36:33;;;;;;;;;;;;;;;15.65;40.02;102926.94;5063184;28;1462;-63
2024/01/22 07:38:59;;;;;;;;;;;;;;;17.18;36.75;102917.06;5070994;28;1092;-62
2024/01/22 07:41:24;;;;;;;;;;;;;;;17.33;36.35;102919.44;5058895;28;945;-62
2024/01/22 07:43:50;;;;;;;;;;;;;;;16.35;38.09;102918.06;5056738;28;2214;-62
2024/01/22 07:46:15;;;;;;;;;;;;;;;15.90;39.25;102916.16;5046318;28;1918;-64
2024/01/22 07:48:41;;;;;;;;;;;;;;;15.59;40.06;102925.91;5057186;28;1134;-63
2024/01/22 07:51:07;;;;;;;;;;;;;;;16.69;37.96;102927.78;5057343;28;948;-62
2024/01/22 07:53:32;;;;;;;;;;;;;;;17.71;35.62;102918.44;5057531;28;981;-65
2024/01/22 07:55:58;;;;;;;;;;;;;;;16.68;37.76;102923.34;5056317;28;1039;-64
2024/01/22 07:58:23;;;;;;;;;;;;;;;16.04;38.97;102930.66;5057682;28;1091;-63
2024/01/22 08:00:49;;;;;;;;;;;;;;;15.67;39.89;102931.16;5058084;28;1019;-61
2024/01/22 08:03:14;;;;;;;;;;;;;;;15.64;39.93;102934.34;5057106;28;1210;-62
2024/01/22 08:05:40;;;;;;;;;;;;;;;17.18;36.74;102929.94;5057500;28;1114;-62
2024/01/22 08:08:09;;;;;;;;;;;;;;;17.63;36.10;102935.25;5056621;28;1972;-64
2024/01/22 08:10:35;;;;;;;;;;;;;;;16.53;37.84;102944.78;5046053;28;1091;-62
2024/01/22 08:13:00;;;;;;;;;;;;;;;16.01;39.18;102936.59;5055461;28;2369;-63
2024/01/22 08:15:26;;;;;;;;;;;;;;;15.63;39.97;102940.88;5057695;28;1094;-61
2024/01/22 08:17:52;;;;;;;;;;;;;;;16.76;37.93;102956.03;5057459;28;1144;-61
2024/01/22 08:20:18;;;;;;;;;;;;;;;17.67;35.87;102949.38;5057349;28;1196;-61
2024/01/22 08:22:44;;;;;;;;;;;;;;;16.52;38.21;102946.69;5057432;28;1091;-61
2024/01/22 08:25:09;;;;;;;;;;;;;;;15.91;39.44;102948.03;5057389;28;1008;-61
2024/01/22 08:27:35;;;;;;;;;;;;;;;15.92;39.25;102944.19;5056911;28;1897;-61
2024/01/22 08:30:00;;;;;;;;;;;;;;;17.43;36.29;102936.28;5056664;28;1056;-61
2024/01/22 08:32:26;;;;;;;;;;;;;;;17.30;36.42;102943.81;5056730;28;1096;-62
2024/01/22 08:34:52;;;;;;;;;;;;;;;16.35;38.62;102940.84;5057470;28;1114;-61
2024/01/22 08:37:18;;;;;;;;;;;;;;;15.87;39.57;102941.28;5057459;28;1119;-61
2024/01/22 08:39:44;;;;;;;;;;;;;;;15.64;40.16;102934.34;5056890;28;1253;-61
2024/01/22 08:42:09;;;;;;;;;;;;;;;17.03;37.18;102938.56;5057208;28;2452;-63
2024/01/22 08:44:35;;;;;;;;;;;;;;;17.93;35.39;102937.25;5057055;28;1068;-62
2024/01/22 08:47:00;;;;;;;;;;;;;;;16.73;37.81;102944.66;5057079;28;1898;-63
2024/01/22 08:49:26;;;;;;;;;;;;;;;16.11;39.03;102944.38;5057360;28;1194;-62
2024/01/22 08:51:51;;;;;;;;;;;;;;;15.81;39.76;102939.38;5055221;28;1072;-59
2024/01/22 08:54:17;;;;;;;;;;;;;;;16.17;38.96;102938.84;5039681;28;964;-60
2024/01/22 08:56:43;;;;;;;;;;;;;;;17.53;36.28;102932.16;5057155;28;1056;-59
2024/01/22 08:59:08;;;;;;;;;;;;;;;17.05;37.12;102928.16;5055586;28;1350;-59
2024/01/22 09:01:34;;;;;;;;;;;;;;;16.25;38.95;102932.25;5055191;28;953;-59
2024/01/22 09:03:59;;;;;;;;;;;;;;;16.18;39.24;102940.50;5038802;28;1059;-57
2024/01/22 09:06:25;;;;;;;;;;;;;;;15.69;40.13;102926.31;5050902;28;1968;-62
2024/01/22 09:08:50;;;;;;;;;;;;;;;15.92;39.72;102922.25;5038789;28;1099;-59
2024/01/22 09:11:16;;;;;;;;;;;;;;;17.37;36.71;102917.09;5038521;28;1098;-60
2024/01/22 09:13:42;;;;;;;;;;;;;;;17.26;36.95;102911.28;5057085;28;1779;-59
2024/01/22 09:16:10;;;;;;;;;;;;;;;16.35;38.80;102910.66;5056011;28;1183;-60
2024/01/22 09:18:35;;;;;;;;;;;;;;;15.91;39.57;102904.13;5052081;28;1413;-59
2024/01/22 09:21:03;;;;;;;;;;;;;;;15.56;40.49;102898.94;5056528;28;1060;-59
2024/01/22 09:23:28;;;;;;;;;;;;;;;16.48;38.83;102893.28;5041483;28;1153;-62
2024/01/22 09:25:54;;;;;;;;;;;;;;;17.67;36.45;102894.34;5054506;28;1111;-62
2024/01/22 09:28:21;;;;;;;;;;;;;;;16.82;37.94;102898.53;5060598;28;1905;-62
2024/01/22 09:30:46;;;;;;;;;;;;;;;16.06;39.35;102890.97;5056052;28;1250;-62
2024/01/22 09:33:12;;;;;;;;;;;;;;;15.74;39.97;102892.75;5065397;28;1108;-62
2024/01/22 09:35:43;;;;;;;;;;;;;;;15.87;39.81;102889.97;5056409;28;1048;-62
2024/01/22 09:38:08;;;;;;;;;;;;;;;17.37;36.85;102887.69;5048296;28;1253;-62
2024/01/22 09:40:34;;;;;;;;;;;;;;;17.30;36.93;102884.16;5049054;28;1214;-63
2024/01/22 09:43:03;;;;;;;;;;;;;;;16.31;38.84;102876.47;5047086;28;1779;-62
2024/01/22 09:45:30;;;;;;;;;;;;;;;15.88;39.78;102890.84;5051803;28;1092;-62
2024/01/22 09:47:55;;;;;;;;;;;;;;;15.59;40.40;102879.28;5054125;28;1965;-63
2024/01/22 09:50:21;;;;;;;;;;;;;;;15.91;39.87;102882.16;5053732;28;1224;-62
2024/01/22 09:52:46;;;;;;;;;;;;;;;17.32;36.99;102878.44;5055740;28;1110;-62
2024/01/22 09:55:13;;;;;;;;;;;;;;;17.71;36.25;102874.41;5024431;28;1285;-62
2024/01/22 09:57:39;;;;;;;;;;;;;;;16.52;38.29;102867.06;5064301;28;1070;-62
2024/01/22 10:00:05;;;;;;;;;;;;;;;16.00;39.35;102864.38;5049785;28;1020;-63
2024/01/22 10:02:40;;;;;;;;;;;;;;;15.65;40.35;102872.94;5025726;28;1251;-62
2024/01/22 10:05:09;;;;;;;;;;;;;;;16.45;38.55;102859.91;5024350;28;1345;-62
2024/01/22 10:07:34;;;;;;;;;;;;;;;17.70;36.28;102860.88;5028640;28;2001;-63
2024/01/22 10:10:00;;;;;;;;;;;;;;;16.76;37.68;102857.13;5035930;28;1009;-62
2024/01/22 10:12:26;;;;;;;;;;;;;;;16.18;39.23;102851.84;5035851;28;1838;-63
2024/01/22 10:14:51;;;;;;;;;;;;;;;15.79;39.69;102851.81;5035979;28;1047;-63
2024/01/22 10:17:17;;;;;;;;;;;;;;;15.66;40.06;102852.69;5034619;28;1040;-62
2024/01/22 10:19:44;;;;;;;;;;;;;;;17.21;37.12;102844.31;5038299;28;1103;-62
2024/01/22 10:22:10;;;;;;;;;;;;;;;17.44;36.34;102825.19;5039820;28;1131;-62
2024/01/22 10:24:36;;;;;;;;;;;;;;;16.37;38.46;102844.56;5026531;28;1016;-61
2024/01/22 10:27:21;;;;;;;;;;;;;;;15.94;39.57;102851.56;5019050;28;1988;-61
2024/01/22 10:29:47;;;;;;;;;;;;;;;15.68;40.02;102839.63;5027594;28;1281;-61
2024/01/22 10:32:12;;;;;;;;;;;;;;;16.50;38.45;102846.38;5035097;28;1171;-62
2024/01/22 10:34:50;;;;;;;;;;;;;;;17.60;36.29;102839.41;5030545;28;1317;-63
2024/01/22 10:37:16;;;;;;;;;;;;;;;16.77;37.94;102847.84;5039584;28;1023;-63
2024/01/22 10:39:42;;;;;;;;;;;;;;;16.10;39.21;102847.44;5038441;28;1124;-60
2024/01/22 10:42:07;;;;;;;;;;;;;;;15.70;40.19;102837.47;5038946;28;2368;-60
2024/01/22 10:44:33;;;;;;;;;;;;;;;15.48;40.62;102833.34;5036356;28;977;-61
2024/01/22 10:46:59;;;;;;;;;;;;;;;16.69;38.31;102826.13;5035848;28;1989;-59
2024/01/22 10:49:24;;;;;;;;;;;;;;;17.74;36.08;102823.56;5032631;28;1088;-63
2024/01/22 10:51:50;;;;;;;;;;;;;;;16.64;38.03;102820.47;5032256;28;1059;-61
2024/01/22 10:54:15;;;;;;;;;;;;;;;15.97;39.38;102820.91;5037289;28;1295;-60
2024/01/22 10:56:41;;;;;;;;;;;;;;;15.69;39.88;102818.50;5023299;28;898;-58
2024/01/22 10:59:08;;;;;;;;;;;;;;;15.68;40.24;102812.19;5045044;28;1079;-58
2024/01/22 11:01:34;;;;;;;;;;;;;;;17.16;37.25;102805.66;5034673;28;1316;-60
2024/01/22 11:03:59;;;;;;;;;;;;;;;17.75;36.03;102804.09;5037631;28;1053;-59
2024/01/22 11:06:25;;;;;;;;;;;;;;;16.54;38.33;102803.66;5035150;28;1914;-61
2024/01/22 11:08:51;;;;;;;;;;;;;;;16.03;39.46;102800.00;5038889;28;1210;-60
2024/01/22 11:11:20;;;;;;;;;;;;;;;15.65;40.13;102804.38;5038290;28;1107;-62
2024/01/22 11:13:51;;;;;;;;;;;;;;;15.99;39.69;102802.34;5028893;28;2484;-60
2024/01/22 11:16:17;;;;;;;;;;;;;;;17.44;36.81;102805.94;5038040;28;1071;-60
2024/01/22 11:18:58;;;;;;;;;;;;;;;17.14;36.99;102796.75;5037381;28;1147;-59
2024/01/22 11:21:24;;;;;;;;;;;;;;;16.19;39.01;102787.66;5037380;28;1072;-59
2024/01/22 11:24:08;;;;;;;;;;;;;;;15.81;39.86;102788.50;5036906;28;1337;-62
2024/01/22 11:26:34;;;;;;;;;;;;;;;15.53;40.49;102792.44;5033049;28;2054;-64
2024/01/22 11:29:09;;;;;;;;;;;;;;;16.89;37.85;102784.75;5038310;28;1112;-65
2024/01/22 11:31:35;;;;;;;;;;;;;;;17.59;36.42;102786.28;5038702;28;1059;-64
2024/01/22 11:34:04;;;;;;;;;;;;;;;16.45;38.59;102789.34;5038879;28;1096;-64
2024/01/22 11:36:48;;;;;;;;;;;;;;;15.85;39.61;102789.75;5038374;28;1100;-63
2024/01/22 11:39:39;;;;;;;;;;;;;;;15.59;40.62;102785.22;5038247;28;1063;-63
2024/01/22 11:42:17;;;;;;;;;;;;;;;16.12;39.69;102786.84;5017930;28;1962;-62
2024/01/22 11:44:43;;;;;;;;;;;;;;;17.48;36.78;102787.06;5038050;28;1091;-62
2024/01/22 11:47:10;;;;;;;;;;;;;;;16.98;37.68;102782.56;5038155;28;1921;-62
2024/01/22 11:49:38;;;;;;;;;;;;;;;16.20;39.05;102786.56;5038604;28;1112;-63
2024/01/22 11:52:10;;;;;;;;;;;;;;;15.79;40.00;102783.25;5038501;28;1110;-61
2024/01/22 11:54:36;;;;;;;;;;;;;;;15.52;40.52;102777.03;5033445;28;1518;-63
2024/01/22 11:57:02;;;;;;;;;;;;;;;17.06;37.63;102773.19;5036280;28;1008;-63
2024/01/22 11:59:28;;;;;;;;;;;;;;;17.58;36.32;102765.34;5034698;28;965;-64
2024/01/22 12:02:09;;;;;;;;;;;;;;;16.46;38.55;102773.72;5040360;28;1284;-64
2024/01/22 12:04:35;;;;;;;;;;;;;;;15.93;39.65;102774.94;5045285;28;977;-64
2024/01/22 12:07:00;;;;;;;;;;;;;;;15.60;40.37;102771.28;5057392;28;1987;-64
2024/01/22 12:09:32;;;;;;;;;;;;;;;16.36;39.04;102769.56;5057530;28;1083;-66
2024/01/22 12:12:02;;;;;;;;;;;;;;;17.57;36.76;102752.69;5057080;28;1900;-65
2024/01/22 12:14:28;;;;;;;;;;;;;;;16.63;38.17;102755.59;5056821;28;1036;-59
2024/01/22 12:17:00;;;;;;;;;;;;;;;16.12;39.21;102751.16;5044314;28;945;-61
2024/01/22 12:19:25;;;;;;;;;;;;;;;15.65;40.18;102755.00;5046414;28;1319;-61
2024/01/22 12:21:51;;;;;;;;;;;;;;;15.49;40.75;102753.63;5056443;28;1014;-60
2024/01/22 12:24:16;;;;;;;;;;;;;;;17.03;37.62;102755.25;5061565;28;1422;-64
2024/01/22 12:26:42;;;;;;;;;;;;;;;17.48;36.78;102747.75;5056197;28;1918;-63
2024/01/22 12:29:18;;;;;;;;;;;;;;;16.36;39.01;102753.09;5052361;28;961;-61
2024/01/22 12:31:44;;;;;;;;;;;;;;;15.86;39.82;102753.03;5056179;28;966;-60
2024/01/22 12:34:12;;;;;;;;;;;;;;;15.54;40.66;102761.19;5057279;28;1132;-57
2024/01/22 12:36:38;;;;;;;;;;;;;;;16.35;39.24;102751.41;5053027;28;1005;-59
2024/01/22 12:39:03;;;;;;;;;;;;;;;17.52;36.59;102741.53;5055075;28;1489;-59
2024/01/22 12:41:30;;;;;;;;;;;;;;;16.71;38.22;102738.84;5046153;28;1339;-60
2024/01/22 12:43:59;;;;;;;;;;;;;;;15.95;39.84;102735.25;5053051;28;2507;-58